Terminal Aerodrome Forecast
Issued by NWS

Home | Current Version | Previous Version | Graphics & Text | Print | Product List | Glossary On
Versions: 1 2 3 4 5 6 7 8 9 10 11 12 13 14 15 16 17 18
000
FTUS43 KMPX 280400 AAB
TAFRWF
TAF AMD
KRWF 280441Z 2805/2824 14012KT P6SM SCT015 OVC040
     FM280900 13008KT P6SM BKN020
     FM281400 12007KT 5SM BR OVC015=

USA.gov is the U.S. government's official web portal to all federal, state and local government web resources and services.